Terminal Aerodrome Forecast
Issued by NWS

Home | Current Version | Previous Version | Text Only | Print | Product List | Glossary On
Versions: 1 2 3 4 5 6 7 8 9 10 11 12 13 14 15 16 17
462
FTUS45 KTFX 251723
TAFLWT
TAF
KLWT 251723Z 2518/2618 24015KT P6SM FEW090 SCT200
     FM260200 26010KT P6SM SCT150
     FM260700 25011KT P6SM SCT040 BKN080 PROB30 2612/2615 4SM -SN
      SCT020 OVC035
     FM261500 27012G20KT P6SM SCT015 BKN025
      TEMPO 2615/2618 4SM -SN BKN015=

USA.gov is the U.S. government's official web portal to all federal, state and local government web resources and services.